sensor_id;sensor_type;location;lat;lon;timestamp;pressure;altitude;pressure_sealevel;temperature;humidity
12486;BME280;6307;46.804;11.580;2022-12-26T00:01:53;-20942.06;;;3.00;100.00
12486;BME280;6307;46.804;11.580;2022-12-26T00:04:21;-20945.97;;;3.13;100.00
12486;BME280;6307;46.804;11.580;2022-12-26T00:06:47;-20949.47;;;3.25;100.00
12486;BME280;6307;46.804;11.580;2022-12-26T00:09:14;-20953.53;;;3.38;100.00
12486;BME280;6307;46.804;11.580;2022-12-26T00:11:41;-20953.81;;;3.39;100.00
12486;BME280;6307;46.804;11.580;2022-12-26T00:14:13;-20942.66;;;3.02;100.00
12486;BME280;6307;46.804;11.580;2022-12-26T00:16:41;-20945.97;;;3.13;100.00
12486;BME280;6307;46.804;11.580;2022-12-26T00:19:09;-20942.97;;;3.03;100.00
12486;BME280;6307;46.804;11.580;2022-12-26T00:21:35;-20943.44;;;3.05;100.00
12486;BME280;6307;46.804;11.580;2022-12-26T00:24:02;-20951.56;;;3.32;100.00
12486;BME280;6307;46.804;11.580;2022-12-26T00:26:30;-20953.53;;;3.38;100.00
12486;BME280;6307;46.804;11.580;2022-12-26T00:28:58;-20954.88;;;3.43;100.00
12486;BME280;6307;46.804;11.580;2022-12-26T00:31:29;-20954.88;;;3.43;100.00
12486;BME280;6307;46.804;11.580;2022-12-26T00:33:58;-20953.38;;;3.38;100.00
12486;BME280;6307;46.804;11.580;2022-12-26T00:36:27;-20943.13;;;3.04;100.00
12486;BME280;6307;46.804;11.580;2022-12-26T00:38:58;-20952.16;;;3.34;100.00
12486;BME280;6307;46.804;11.580;2022-12-26T00:41:26;-20948.56;;;3.22;100.00
12486;BME280;6307;46.804;11.580;2022-12-26T00:43:53;-20952.16;;;3.34;100.00
12486;BME280;6307;46.804;11.580;2022-12-26T00:46:20;-20953.81;;;3.39;100.00
12486;BME280;6307;46.804;11.580;2022-12-26T00:48:46;-20948.09;;;3.20;100.00
12486;BME280;6307;46.804;11.580;2022-12-26T00:51:14;-20948.84;;;3.23;100.00
12486;BME280;6307;46.804;11.580;2022-12-26T00:53:40;-20947.50;;;3.18;100.00
12486;BME280;6307;46.804;11.580;2022-12-26T00:56:08;-20945.53;;;3.12;100.00
12486;BME280;6307;46.804;11.580;2022-12-26T00:58:35;-20949.31;;;3.24;100.00
12486;BME280;6307;46.804;11.580;2022-12-26T01:01:08;-20958.66;;;3.55;100.00
12486;BME280;6307;46.804;11.580;2022-12-26T01:03:37;-20951.13;;;3.30;100.00
12486;BME280;6307;46.804;11.580;2022-12-26T01:06:04;-20953.81;;;3.39;100.00
12486;BME280;6307;46.804;11.580;2022-12-26T01:08:30;-20949.16;;;3.24;100.00
12486;BME280;6307;46.804;11.580;2022-12-26T01:10:57;-20952.78;;;3.36;100.00
12486;BME280;6307;46.804;11.580;2022-12-26T01:13:26;-20953.97;;;3.40;100.00
12486;BME280;6307;46.804;11.580;2022-12-26T01:15:53;-20957.16;;;3.50;100.00
12486;BME280;6307;46.804;11.580;2022-12-26T01:18:19;-20955.03;;;3.43;100.00
12486;BME280;6307;46.804;11.580;2022-12-26T01:20:46;-20953.22;;;3.37;100.00
12486;BME280;6307;46.804;11.580;2022-12-26T01:23:13;-20948.41;;;3.21;100.00
12486;BME280;6307;46.804;11.580;2022-12-26T01:25:39;-20936.63;;;2.82;100.00
12486;BME280;6307;46.804;11.580;2022-12-26T01:28:06;-20934.97;;;2.77;100.00
12486;BME280;6307;46.804;11.580;2022-12-26T01:30:32;-20945.25;;;3.11;100.00
12486;BME280;6307;46.804;11.580;2022-12-26T01:32:58;-20938.75;;;2.89;100.00
12486;BME280;6307;46.804;11.580;2022-12-26T01:35:24;-20943.88;;;3.06;100.00
12486;BME280;6307;46.804;11.580;2022-12-26T01:37:50;-20926.84;;;2.50;100.00
12486;BME280;6307;46.804;11.580;2022-12-26T01:40:16;-20934.97;;;2.77;100.00
12486;BME280;6307;46.804;11.580;2022-12-26T01:42:43;-20942.53;;;3.02;100.00
12486;BME280;6307;46.804;11.580;2022-12-26T01:45:27;-20933.31;;;2.71;100.00
12486;BME280;6307;46.804;11.580;2022-12-26T01:56:08;-20936.78;;;2.83;100.00
12486;BME280;6307;46.804;11.580;2022-12-26T01:58:56;-20944.63;;;3.09;100.00
12486;BME280;6307;46.804;11.580;2022-12-26T02:01:30;-20938.91;;;2.90;100.00
12486;BME280;6307;46.804;11.580;2022-12-26T02:04:03;-20932.72;;;2.69;100.00
12486;BME280;6307;46.804;11.580;2022-12-26T02:06:50;-20934.53;;;2.75;100.00
12486;BME280;6307;46.804;11.580;2022-12-26T02:09:17;-20935.59;;;2.79;100.00
12486;BME280;6307;46.804;11.580;2022-12-26T02:11:47;-20943.28;;;3.04;100.00
12486;BME280;6307;46.804;11.580;2022-12-26T02:14:17;-20942.66;;;3.02;100.00
12486;BME280;6307;46.804;11.580;2022-12-26T02:16:44;-20948.69;;;3.22;100.00
12486;BME280;6307;46.804;11.580;2022-12-26T02:31:34;-20955.19;;;3.44;100.00
12486;BME280;6307;46.804;11.580;2022-12-26T02:34:22;-20958.94;;;3.56;100.00
12486;BME280;6307;46.804;11.580;2022-12-26T02:40:02;-20951.56;;;3.32;100.00
12486;BME280;6307;46.804;11.580;2022-12-26T02:43:10;-20947.19;;;3.17;100.00
12486;BME280;6307;46.804;11.580;2022-12-26T02:46:18;-20960.59;;;3.62;100.00
12486;BME280;6307;46.804;11.580;2022-12-26T02:49:31;-20960.59;;;3.62;100.00
12486;BME280;6307;46.804;11.580;2022-12-26T02:55:40;-20960.16;;;3.60;100.00
12486;BME280;6307;46.804;11.580;2022-12-26T02:58:40;-20952.63;;;3.35;100.00
12486;BME280;6307;46.804;11.580;2022-12-26T03:01:44;-20948.69;;;3.22;100.00
12486;BME280;6307;46.804;11.580;2022-12-26T03:04:33;-20960.00;;;3.60;100.00
12486;BME280;6307;46.804;11.580;2022-12-26T03:07:25;-20956.84;;;3.49;100.00
12486;BME280;6307;46.804;11.580;2022-12-26T03:10:27;-20954.13;;;3.40;100.00
12486;BME280;6307;46.804;11.580;2022-12-26T03:13:23;-20960.00;;;3.60;100.00
12486;BME280;6307;46.804;11.580;2022-12-26T03:15:56;-20954.88;;;3.43;100.00
12486;BME280;6307;46.804;11.580;2022-12-26T03:18:50;-20957.28;;;3.51;100.00
12486;BME280;6307;46.804;11.580;2022-12-26T03:21:25;-20956.25;;;3.47;100.00
12486;BME280;6307;46.804;11.580;2022-12-26T03:23:55;-20959.25;;;3.57;100.00
12486;BME280;6307;46.804;11.580;2022-12-26T03:26:27;-20962.25;;;3.67;100.00
12486;BME280;6307;46.804;11.580;2022-12-26T03:29:07;-20964.06;;;3.73;100.00
12486;BME280;6307;46.804;11.580;2022-12-26T03:31:54;-20962.72;;;3.69;100.00
12486;BME280;6307;46.804;11.580;2022-12-26T03:34:21;-20960.59;;;3.62;100.00
12486;BME280;6307;46.804;11.580;2022-12-26T03:40:07;-20958.19;;;3.54;100.00
12486;BME280;6307;46.804;11.580;2022-12-26T03:46:24;-20961.06;;;3.63;100.00
12486;BME280;6307;46.804;11.580;2022-12-26T03:49:32;-20953.53;;;3.38;100.00
12486;BME280;6307;46.804;11.580;2022-12-26T03:52:40;-20952.91;;;3.36;100.00
12486;BME280;6307;46.804;11.580;2022-12-26T03:59:03;-20951.72;;;3.32;100.00
12486;BME280;6307;46.804;11.580;2022-12-26T04:01:55;-20956.09;;;3.47;100.00
12486;BME280;6307;46.804;11.580;2022-12-26T04:04:48;-20963.31;;;3.71;100.00
12486;BME280;6307;46.804;11.580;2022-12-26T04:07:41;-20964.53;;;3.75;100.00
12486;BME280;6307;46.804;11.580;2022-12-26T04:10:38;-20964.97;;;3.76;100.00
12486;BME280;6307;46.804;11.580;2022-12-26T04:13:43;-20954.13;;;3.40;100.00
12486;BME280;6307;46.804;11.580;2022-12-26T04:16:40;-20953.97;;;3.40;100.00
12486;BME280;6307;46.804;11.580;2022-12-26T04:19:52;-20953.69;;;3.39;100.00
12486;BME280;6307;46.804;11.580;2022-12-26T04:22:42;-20956.69;;;3.49;100.00
12486;BME280;6307;46.804;11.580;2022-12-26T04:26:07;-20955.34;;;3.44;100.00
12486;BME280;6307;46.804;11.580;2022-12-26T04:29:19;-20952.91;;;3.36;100.00
12486;BME280;6307;46.804;11.580;2022-12-26T04:32:17;-20959.84;;;3.59;100.00
12486;BME280;6307;46.804;11.580;2022-12-26T04:35:18;-20968.00;;;3.86;100.00
12486;BME280;6307;46.804;11.580;2022-12-26T04:38:13;-20969.19;;;3.90;100.00
12486;BME280;6307;46.804;11.580;2022-12-26T04:41:03;-20956.69;;;3.49;100.00
12486;BME280;6307;46.804;11.580;2022-12-26T04:43:51;-20968.28;;;3.87;100.00
12486;BME280;6307;46.804;11.580;2022-12-26T04:46:45;-20960.31;;;3.61;100.00
12486;BME280;6307;46.804;11.580;2022-12-26T04:49:15;-20959.09;;;3.57;100.00
12486;BME280;6307;46.804;11.580;2022-12-26T04:52:04;-20960.31;;;3.61;100.00
12486;BME280;6307;46.804;11.580;2022-12-26T04:54:33;-20955.78;;;3.46;100.00
12486;BME280;6307;46.804;11.580;2022-12-26T04:56:59;-20961.97;;;3.66;100.00
12486;BME280;6307;46.804;11.580;2022-12-26T04:59:25;-20959.09;;;3.57;100.00
12486;BME280;6307;46.804;11.580;2022-12-26T05:01:52;-20958.81;;;3.56;100.00
12486;BME280;6307;46.804;11.580;2022-12-26T05:04:36;-20966.50;;;3.81;100.00
12486;BME280;6307;46.804;11.580;2022-12-26T05:07:24;-20970.41;;;3.94;100.00
12486;BME280;6307;46.804;11.580;2022-12-26T05:10:20;-20966.94;;;3.83;100.00
12486;BME280;6307;46.804;11.580;2022-12-26T05:12:49;-20971.75;;;3.99;100.00
12486;BME280;6307;46.804;11.580;2022-12-26T05:15:17;-20965.28;;;3.77;100.00
12486;BME280;6307;46.804;11.580;2022-12-26T05:17:43;-20968.00;;;3.86;100.00
12486;BME280;6307;46.804;11.580;2022-12-26T05:20:48;-20970.56;;;3.95;100.00
12486;BME280;6307;46.804;11.580;2022-12-26T05:23:18;-20976.44;;;4.14;100.00
12486;BME280;6307;46.804;11.580;2022-12-26T05:26:17;-20969.03;;;3.90;100.00
12486;BME280;6307;46.804;11.580;2022-12-26T05:29:06;-20974.78;;;4.09;100.00
12486;BME280;6307;46.804;11.580;2022-12-26T05:31:32;-20972.50;;;4.01;100.00
12486;BME280;6307;46.804;11.580;2022-12-26T05:33:58;-20977.19;;;4.17;100.00
12486;BME280;6307;46.804;11.580;2022-12-26T05:36:54;-20972.22;;;4.00;100.00
12486;BME280;6307;46.804;11.580;2022-12-26T05:39:23;-20978.69;;;4.22;100.00
12486;BME280;6307;46.804;11.580;2022-12-26T05:41:49;-20977.94;;;4.19;100.00
12486;BME280;6307;46.804;11.580;2022-12-26T05:44:15;-20975.69;;;4.12;100.00
12486;BME280;6307;46.804;11.580;2022-12-26T05:46:42;-20982.00;;;4.33;100.00
12486;BME280;6307;46.804;11.580;2022-12-26T05:49:08;-20973.25;;;4.04;100.00
12486;BME280;6307;46.804;11.580;2022-12-26T05:51:35;-20978.84;;;4.22;100.00
12486;BME280;6307;46.804;11.580;2022-12-26T05:54:01;-20980.19;;;4.27;100.00
12486;BME280;6307;46.804;11.580;2022-12-26T05:56:28;-20983.81;;;4.39;100.00
12486;BME280;6307;46.804;11.580;2022-12-26T05:58:56;-20985.47;;;4.44;100.00
12486;BME280;6307;46.804;11.580;2022-12-26T06:01:25;-20973.72;;;4.05;100.00
12486;BME280;6307;46.804;11.580;2022-12-26T06:03:55;-20976.44;;;4.14;100.00
12486;BME280;6307;46.804;11.580;2022-12-26T06:06:24;-20984.25;;;4.40;100.00
12486;BME280;6307;46.804;11.580;2022-12-26T06:08:52;-20989.38;;;4.57;100.00
12486;BME280;6307;46.804;11.580;2022-12-26T06:11:19;-20989.69;;;4.58;100.00
12486;BME280;6307;46.804;11.580;2022-12-26T06:13:47;-20988.63;;;4.55;100.00
12486;BME280;6307;46.804;11.580;2022-12-26T06:16:15;-20989.09;;;4.56;100.00
12486;BME280;6307;46.804;11.580;2022-12-26T06:18:42;-20989.22;;;4.57;100.00
12486;BME280;6307;46.804;11.580;2022-12-26T06:21:14;-20987.56;;;4.51;100.00
12486;BME280;6307;46.804;11.580;2022-12-26T06:23:42;-20978.53;;;4.21;100.00
12486;BME280;6307;46.804;11.580;2022-12-26T06:26:08;-20982.00;;;4.33;100.00
12486;BME280;6307;46.804;11.580;2022-12-26T06:28:37;-20983.50;;;4.38;100.00
12486;BME280;6307;46.804;11.580;2022-12-26T06:31:19;-20986.06;;;4.46;100.00
12486;BME280;6307;46.804;11.580;2022-12-26T06:33:53;-20984.25;;;4.40;100.00
12486;BME280;6307;46.804;11.580;2022-12-26T06:36:24;-20981.69;;;4.32;100.00
12486;BME280;6307;46.804;11.580;2022-12-26T06:38:51;-20976.59;;;4.15;100.00
12486;BME280;6307;46.804;11.580;2022-12-26T06:41:20;-20971.16;;;3.97;100.00
12486;BME280;6307;46.804;11.580;2022-12-26T06:43:47;-20968.16;;;3.87;100.00
12486;BME280;6307;46.804;11.580;2022-12-26T06:46:16;-20969.50;;;3.91;100.00
12486;BME280;6307;46.804;11.580;2022-12-26T06:48:46;-20973.13;;;4.03;100.00
12486;BME280;6307;46.804;11.580;2022-12-26T06:51:15;-20979.59;;;4.25;100.00
12486;BME280;6307;46.804;11.580;2022-12-26T06:53:47;-20966.63;;;3.82;100.00
12486;BME280;6307;46.804;11.580;2022-12-26T06:56:22;-20975.53;;;4.11;100.00
12486;BME280;6307;46.804;11.580;2022-12-26T06:58:57;-20970.56;;;3.95;100.00
12486;BME280;6307;46.804;11.580;2022-12-26T07:01:26;-20989.09;;;4.56;100.00
12486;BME280;6307;46.804;11.580;2022-12-26T07:03:54;-20988.03;;;4.53;100.00
12486;BME280;6307;46.804;11.580;2022-12-26T07:06:24;-20981.09;;;4.30;100.00
12486;BME280;6307;46.804;11.580;2022-12-26T07:09:06;-20979.28;;;4.24;100.00
12486;BME280;6307;46.804;11.580;2022-12-26T07:11:36;-20985.63;;;4.45;100.00
12486;BME280;6307;46.804;11.580;2022-12-26T07:14:03;-20985.16;;;4.43;100.00
12486;BME280;6307;46.804;11.580;2022-12-26T07:16:33;-20985.16;;;4.43;100.00
12486;BME280;6307;46.804;11.580;2022-12-26T07:19:00;-20986.53;;;4.48;100.00
12486;BME280;6307;46.804;11.580;2022-12-26T07:21:26;-20986.06;;;4.46;100.00
12486;BME280;6307;46.804;11.580;2022-12-26T07:23:53;-20981.25;;;4.30;100.00
12486;BME280;6307;46.804;11.580;2022-12-26T07:26:20;-20981.09;;;4.30;100.00
12486;BME280;6307;46.804;11.580;2022-12-26T07:28:47;-20983.34;;;4.37;100.00
12486;BME280;6307;46.804;11.580;2022-12-26T07:31:18;-20989.53;;;4.58;100.00
12486;BME280;6307;46.804;11.580;2022-12-26T07:33:46;-20983.34;;;4.37;100.00
12486;BME280;6307;46.804;11.580;2022-12-26T07:36:18;-20988.31;;;4.54;100.00
12486;BME280;6307;46.804;11.580;2022-12-26T07:38:45;-21002.50;;;5.01;100.00
12486;BME280;6307;46.804;11.580;2022-12-26T07:41:12;-21002.63;;;5.01;100.00
12486;BME280;6307;46.804;11.580;2022-12-26T07:43:57;-21007.31;;;5.17;100.00
12486;BME280;6307;46.804;11.580;2022-12-26T07:46:23;-21011.81;;;5.32;100.00
12486;BME280;6307;46.804;11.580;2022-12-26T07:48:49;-21008.81;;;5.22;100.00
12486;BME280;6307;46.804;11.580;2022-12-26T07:51:15;-21010.47;;;5.27;100.00
12486;BME280;6307;46.804;11.580;2022-12-26T07:53:42;-21010.00;;;5.26;100.00
12486;BME280;6307;46.804;11.580;2022-12-26T07:56:08;-21009.88;;;5.25;100.00
12486;BME280;6307;46.804;11.580;2022-12-26T07:58:34;-20995.25;;;4.77;100.00
12486;BME280;6307;46.804;11.580;2022-12-26T08:01:01;-21001.88;;;4.99;100.00
12486;BME280;6307;46.804;11.580;2022-12-26T08:03:28;-21007.44;;;5.17;100.00
12486;BME280;6307;46.804;11.580;2022-12-26T08:05:55;-21017.84;;;5.52;100.00
12486;BME280;6307;46.804;11.580;2022-12-26T08:08:21;-21017.09;;;5.49;100.00
12486;BME280;6307;46.804;11.580;2022-12-26T08:10:47;-21016.78;;;5.48;100.00
12486;BME280;6307;46.804;11.580;2022-12-26T08:13:13;-21017.69;;;5.51;100.00
12486;BME280;6307;46.804;11.580;2022-12-26T08:15:40;-21022.50;;;5.67;100.00
12486;BME280;6307;46.804;11.580;2022-12-26T08:18:06;-21025.06;;;5.76;100.00
12486;BME280;6307;46.804;11.580;2022-12-26T08:20:32;-21022.06;;;5.66;100.00
12486;BME280;6307;46.804;11.580;2022-12-26T08:22:58;-21025.97;;;5.79;100.00
12486;BME280;6307;46.804;11.580;2022-12-26T08:25:25;-21027.19;;;5.83;100.00
12486;BME280;6307;46.804;11.580;2022-12-26T08:27:51;-21030.50;;;5.94;100.00
12486;BME280;6307;46.804;11.580;2022-12-26T08:30:17;-21019.34;;;5.57;100.00
12486;BME280;6307;46.804;11.580;2022-12-26T08:32:43;-21018.13;;;5.53;100.00
12486;BME280;6307;46.804;11.580;2022-12-26T08:35:09;-21025.22;;;5.76;100.00
12486;BME280;6307;46.804;11.580;2022-12-26T08:37:35;-21025.66;;;5.78;100.00
12486;BME280;6307;46.804;11.580;2022-12-26T08:40:01;-21027.03;;;5.82;100.00
12486;BME280;6307;46.804;11.580;2022-12-26T08:42:27;-21024.31;;;5.73;100.00
12486;BME280;6307;46.804;11.580;2022-12-26T08:44:53;-21022.19;;;5.66;100.00
12486;BME280;6307;46.804;11.580;2022-12-26T08:47:19;-21028.97;;;5.89;100.00
12486;BME280;6307;46.804;11.580;2022-12-26T08:49:50;-21020.56;;;5.61;100.00
12486;BME280;6307;46.804;11.580;2022-12-26T08:52:16;-21017.53;;;5.51;100.00
12486;BME280;6307;46.804;11.580;2022-12-26T08:54:42;-21025.38;;;5.77;100.00
12486;BME280;6307;46.804;11.580;2022-12-26T08:57:09;-21024.91;;;5.75;100.00
12486;BME280;6307;46.804;11.580;2022-12-26T08:59:35;-21029.88;;;5.92;100.00
12486;BME280;6307;46.804;11.580;2022-12-26T09:02:01;-21031.84;;;5.98;100.00
12486;BME280;6307;46.804;11.580;2022-12-26T09:04:27;-21042.66;;;6.34;100.00
12486;BME280;6307;46.804;11.580;2022-12-26T09:06:53;-21036.34;;;6.13;100.00
12486;BME280;6307;46.804;11.580;2022-12-26T09:09:19;-21046.13;;;6.46;100.00
12486;BME280;6307;46.804;11.580;2022-12-26T09:11:46;-21048.53;;;6.54;100.00
12486;BME280;6307;46.804;11.580;2022-12-26T09:14:13;-21042.97;;;6.35;100.00
12486;BME280;6307;46.804;11.580;2022-12-26T09:16:41;-21046.59;;;6.47;100.00
12486;BME280;6307;46.804;11.580;2022-12-26T09:19:13;-21044.34;;;6.40;100.00
12486;BME280;6307;46.804;11.580;2022-12-26T09:21:43;-21048.53;;;6.54;100.00
12486;BME280;6307;46.804;11.580;2022-12-26T09:24:13;-21056.06;;;6.79;100.00
12486;BME280;6307;46.804;11.580;2022-12-26T09:26:40;-21049.28;;;6.56;100.00
12486;BME280;6307;46.804;11.580;2022-12-26T09:29:09;-21056.97;;;6.82;100.00
12486;BME280;6307;46.804;11.580;2022-12-26T09:31:36;-21060.25;;;6.93;100.00
12486;BME280;6307;46.804;11.580;2022-12-26T09:34:04;-21057.41;;;6.83;100.00
12486;BME280;6307;46.804;11.580;2022-12-26T09:36:34;-21060.56;;;6.94;100.00
12486;BME280;6307;46.804;11.580;2022-12-26T09:39:06;-21063.88;;;7.05;100.00
12486;BME280;6307;46.804;11.580;2022-12-26T09:44:53;-21053.34;;;6.70;100.00
12486;BME280;6307;46.804;11.580;2022-12-26T09:47:59;-21056.50;;;6.80;100.00
12486;BME280;6307;46.804;11.580;2022-12-26T09:50:36;-21066.59;;;7.14;100.00
12486;BME280;6307;46.804;11.580;2022-12-26T09:53:11;-21062.81;;;7.01;100.00
12486;BME280;6307;46.804;11.580;2022-12-26T09:55:57;-21062.06;;;6.99;100.00
12486;BME280;6307;46.804;11.580;2022-12-26T09:58:34;-21070.03;;;7.25;100.00
12486;BME280;6307;46.804;11.580;2022-12-26T10:01:15;-21069.28;;;7.22;100.00
12486;BME280;6307;46.804;11.580;2022-12-26T10:03:50;-21075.75;;;7.44;100.00
12486;BME280;6307;46.804;11.580;2022-12-26T10:06:40;-21068.69;;;7.21;100.00
12486;BME280;6307;46.804;11.580;2022-12-26T10:12:39;-21060.41;;;6.93;100.00
12486;BME280;6307;46.804;11.580;2022-12-26T10:23:46;-21066.13;;;7.12;100.00
12486;BME280;6307;46.804;11.580;2022-12-26T10:26:33;-21074.41;;;7.39;100.00
12486;BME280;6307;46.804;11.580;2022-12-26T10:31:51;-21087.91;;;7.84;100.00
12486;BME280;6307;46.804;11.580;2022-12-26T10:34:40;-21090.94;;;7.94;100.00
12486;BME280;6307;46.804;11.580;2022-12-26T10:37:45;-21086.41;;;7.79;100.00
12486;BME280;6307;46.804;11.580;2022-12-26T10:40:27;-21092.88;;;8.01;100.00
12486;BME280;6307;46.804;11.580;2022-12-26T10:43:22;-21087.16;;;7.82;100.00
12486;BME280;6307;46.804;11.580;2022-12-26T10:48:41;-21095.75;;;8.10;100.00
12486;BME280;6307;46.804;11.580;2022-12-26T10:51:08;-21096.50;;;8.13;100.00
12486;BME280;6307;46.804;11.580;2022-12-26T10:53:40;-21098.00;;;8.18;100.00
12486;BME280;6307;46.804;11.580;2022-12-26T10:56:11;-21102.81;;;8.34;100.00
12486;BME280;6307;46.804;11.580;2022-12-26T10:58:38;-21109.56;;;8.56;100.00
12486;BME280;6307;46.804;11.580;2022-12-26T11:01:35;-21111.38;;;8.62;100.00
12486;BME280;6307;46.804;11.580;2022-12-26T11:04:13;-21113.63;;;8.70;100.00
12486;BME280;6307;46.804;11.580;2022-12-26T11:06:42;-21109.72;;;8.57;100.00
12486;BME280;6307;46.804;11.580;2022-12-26T11:12:05;-21106.09;;;8.45;100.00
12486;BME280;6307;46.804;11.580;2022-12-26T11:14:59;-21107.91;;;8.51;100.00
12486;BME280;6307;46.804;11.580;2022-12-26T11:17:31;-21107.00;;;8.48;100.00
12486;BME280;6307;46.804;11.580;2022-12-26T11:22:42;-21102.22;;;8.32;100.00
12486;BME280;6307;46.804;11.580;2022-12-26T11:27:37;-21102.50;;;8.33;100.00
12486;BME280;6307;46.804;11.580;2022-12-26T11:33:27;-21093.03;;;8.01;100.00
12486;BME280;6307;46.804;11.580;2022-12-26T11:36:09;-21100.56;;;8.26;100.00
12486;BME280;6307;46.804;11.580;2022-12-26T11:51:55;-21113.63;;;8.70;100.00
12486;BME280;6307;46.804;11.580;2022-12-26T11:57:14;-21116.31;;;8.79;100.00
12486;BME280;6307;46.804;11.580;2022-12-26T11:59:47;-21116.63;;;8.80;100.00
12486;BME280;6307;46.804;11.580;2022-12-26T12:02:25;-21114.66;;;8.73;100.00
12486;BME280;6307;46.804;11.580;2022-12-26T12:04:58;-21107.00;;;8.48;100.00
12486;BME280;6307;46.804;11.580;2022-12-26T12:07:56;-21110.91;;;8.61;100.00
12486;BME280;6307;46.804;11.580;2022-12-26T12:16:36;-21114.22;;;8.72;100.00
12486;BME280;6307;46.804;11.580;2022-12-26T12:33:48;-21109.25;;;8.55;100.00
12486;BME280;6307;46.804;11.580;2022-12-26T12:46:05;-21111.97;;;8.64;100.00
12486;BME280;6307;46.804;11.580;2022-12-26T12:51:48;-21106.09;;;8.45;100.00
12486;BME280;6307;46.804;11.580;2022-12-26T12:54:23;-21108.66;;;8.53;100.00
12486;BME280;6307;46.804;11.580;2022-12-26T12:57:16;-21109.56;;;8.56;100.00
12486;BME280;6307;46.804;11.580;2022-12-26T13:08:11;-21102.06;;;8.31;100.00
12486;BME280;6307;46.804;11.580;2022-12-26T13:10:50;-21098.59;;;8.20;100.00
12486;BME280;6307;46.804;11.580;2022-12-26T13:13:25;-21101.91;;;8.31;100.00
12486;BME280;6307;46.804;11.580;2022-12-26T13:16:04;-21099.34;;;8.22;100.00
12486;BME280;6307;46.804;11.580;2022-12-26T13:18:57;-21100.09;;;8.25;100.00
12486;BME280;6307;46.804;11.580;2022-12-26T13:21:28;-21095.88;;;8.11;100.00
12486;BME280;6307;46.804;11.580;2022-12-26T13:24:04;-21093.03;;;8.01;100.00
12486;BME280;6307;46.804;11.580;2022-12-26T13:27:06;-21098.44;;;8.19;100.00
12486;BME280;6307;46.804;11.580;2022-12-26T13:29:54;-21102.22;;;8.32;100.00
12486;BME280;6307;46.804;11.580;2022-12-26T13:32:24;-21097.53;;;8.16;100.00
12486;BME280;6307;46.804;11.580;2022-12-26T13:34:54;-21097.38;;;8.16;100.00
12486;BME280;6307;46.804;11.580;2022-12-26T13:45:55;-21082.81;;;7.67;100.00
12486;BME280;6307;46.804;11.580;2022-12-26T13:51:00;-21091.69;;;7.97;100.00
12486;BME280;6307;46.804;11.580;2022-12-26T13:53:33;-21083.56;;;7.70;100.00
12486;BME280;6307;46.804;11.580;2022-12-26T14:01:52;-21094.53;;;8.06;100.00
12486;BME280;6307;46.804;11.580;2022-12-26T14:04:46;-21099.19;;;8.22;100.00
12486;BME280;6307;46.804;11.580;2022-12-26T14:25:21;-21089.13;;;7.88;100.00
12486;BME280;6307;46.804;11.580;2022-12-26T14:30:53;-21086.41;;;7.79;100.00
12486;BME280;6307;46.804;11.580;2022-12-26T14:33:42;-21092.13;;;7.98;100.00
12486;BME280;6307;46.804;11.580;2022-12-26T14:44:53;-21089.13;;;7.88;100.00
12486;BME280;6307;46.804;11.580;2022-12-26T15:07:10;-21083.25;;;7.69;100.00
12486;BME280;6307;46.804;11.580;2022-12-26T15:21:37;-21081.00;;;7.61;100.00
12486;BME280;6307;46.804;11.580;2022-12-26T15:27:19;-21067.94;;;7.18;100.00
12486;BME280;6307;46.804;11.580;2022-12-26T15:35:27;-21069.44;;;7.23;100.00
12486;BME280;6307;46.804;11.580;2022-12-26T15:40:51;-21063.28;;;7.03;100.00
12486;BME280;6307;46.804;11.580;2022-12-26T15:46:23;-21064.94;;;7.08;100.00
12486;BME280;6307;46.804;11.580;2022-12-26T15:54:57;-21067.94;;;7.18;100.00
12486;BME280;6307;46.804;11.580;2022-12-26T15:57:44;-21068.69;;;7.21;100.00
12486;BME280;6307;46.804;11.580;2022-12-26T16:00:34;-21064.19;;;7.06;100.00
12486;BME280;6307;46.804;11.580;2022-12-26T16:08:57;-21065.97;;;7.12;100.00
12486;BME280;6307;46.804;11.580;2022-12-26T16:11:40;-21065.69;;;7.11;100.00
12486;BME280;6307;46.804;11.580;2022-12-26T16:14:12;-21058.31;;;6.86;100.00
12486;BME280;6307;46.804;11.580;2022-12-26T16:16:50;-21066.13;;;7.12;100.00
12486;BME280;6307;46.804;11.580;2022-12-26T16:19:22;-21070.94;;;7.28;100.00
12486;BME280;6307;46.804;11.580;2022-12-26T16:21:55;-21067.94;;;7.18;100.00
12486;BME280;6307;46.804;11.580;2022-12-26T16:24:44;-21064.19;;;7.06;100.00
12486;BME280;6307;46.804;11.580;2022-12-26T16:27:17;-21063.41;;;7.03;100.00
12486;BME280;6307;46.804;11.580;2022-12-26T16:29:53;-21051.41;;;6.63;100.00
12486;BME280;6307;46.804;11.580;2022-12-26T16:32:33;-21060.41;;;6.93;100.00
12486;BME280;6307;46.804;11.580;2022-12-26T16:35:03;-21066.72;;;7.14;100.00
12486;BME280;6307;46.804;11.580;2022-12-26T16:37:31;-21069.88;;;7.24;100.00
12486;BME280;6307;46.804;11.580;2022-12-26T16:42:52;-21052.44;;;6.67;100.00
12486;BME280;6307;46.804;11.580;2022-12-26T16:45:21;-21048.25;;;6.53;100.00
12486;BME280;6307;46.804;11.580;2022-12-26T16:47:49;-21047.94;;;6.52;100.00
12486;BME280;6307;46.804;11.580;2022-12-26T16:50:22;-21052.16;;;6.66;100.00
12486;BME280;6307;46.804;11.580;2022-12-26T16:53:14;-21047.03;;;6.49;100.00
12486;BME280;6307;46.804;11.580;2022-12-26T16:55:45;-21050.19;;;6.59;100.00
12486;BME280;6307;46.804;11.580;2022-12-26T16:58:26;-21052.91;;;6.68;100.00
12486;BME280;6307;46.804;11.580;2022-12-26T17:03:48;-21049.75;;;6.58;100.00
12486;BME280;6307;46.804;11.580;2022-12-26T17:06:48;-21048.25;;;6.53;100.00
12486;BME280;6307;46.804;11.580;2022-12-26T17:09:26;-21044.19;;;6.39;100.00
12486;BME280;6307;46.804;11.580;2022-12-26T17:12:01;-21039.81;;;6.25;100.00
12486;BME280;6307;46.804;11.580;2022-12-26T17:17:03;-21045.53;;;6.44;100.00
12486;BME280;6307;46.804;11.580;2022-12-26T17:19:33;-21048.84;;;6.55;100.00
12486;BME280;6307;46.804;11.580;2022-12-26T17:27:45;-21050.34;;;6.60;100.00
12486;BME280;6307;46.804;11.580;2022-12-26T17:30:23;-21048.38;;;6.53;100.00
12486;BME280;6307;46.804;11.580;2022-12-26T17:33:01;-21047.78;;;6.51;100.00
12486;BME280;6307;46.804;11.580;2022-12-26T17:35:31;-21035.44;;;6.10;100.00
12486;BME280;6307;46.804;11.580;2022-12-26T17:38:03;-21039.22;;;6.23;100.00